sensor_id;sensor_type;location;lat;lon;timestamp;temperature;humidity
29201;DHT22;16244;51.956;12.980;2022-11-21T00:00:08;-0.80;94.20
29201;DHT22;16244;51.956;12.980;2022-11-21T00:02:35;-0.80;94.20
29201;DHT22;16244;51.956;12.980;2022-11-21T00:05:03;-0.80;94.30
29201;DHT22;16244;51.956;12.980;2022-11-21T00:07:30;-0.80;94.20
29201;DHT22;16244;51.956;12.980;2022-11-21T00:09:57;-0.80;94.20
29201;DHT22;16244;51.956;12.980;2022-11-21T00:12:26;-0.70;94.10
29201;DHT22;16244;51.956;12.980;2022-11-21T00:14:53;-0.70;93.90
29201;DHT22;16244;51.956;12.980;2022-11-21T00:17:20;-0.70;94.00
29201;DHT22;16244;51.956;12.980;2022-11-21T00:19:47;-0.70;93.80
29201;DHT22;16244;51.956;12.980;2022-11-21T00:22:14;-0.70;93.90
29201;DHT22;16244;51.956;12.980;2022-11-21T00:24:41;-0.80;94.00
29201;DHT22;16244;51.956;12.980;2022-11-21T00:27:08;-0.70;93.80
29201;DHT22;16244;51.956;12.980;2022-11-21T00:29:36;-0.70;93.80
29201;DHT22;16244;51.956;12.980;2022-11-21T00:32:04;-0.70;93.80
29201;DHT22;16244;51.956;12.980;2022-11-21T00:34:31;-0.70;93.90
29201;DHT22;16244;51.956;12.980;2022-11-21T00:36:58;-0.60;93.90
29201;DHT22;16244;51.956;12.980;2022-11-21T00:39:25;-0.70;93.80
29201;DHT22;16244;51.956;12.980;2022-11-21T00:41:52;-0.70;93.80
29201;DHT22;16244;51.956;12.980;2022-11-21T00:44:19;-0.60;93.90
29201;DHT22;16244;51.956;12.980;2022-11-21T00:46:47;-0.70;93.80
29201;DHT22;16244;51.956;12.980;2022-11-21T00:49:14;-0.70;94.00
29201;DHT22;16244;51.956;12.980;2022-11-21T00:51:41;-0.80;94.10
29201;DHT22;16244;51.956;12.980;2022-11-21T00:54:08;-0.70;94.10
29201;DHT22;16244;51.956;12.980;2022-11-21T00:56:35;-0.70;94.00
29201;DHT22;16244;51.956;12.980;2022-11-21T00:59:02;-0.70;93.90
29201;DHT22;16244;51.956;12.980;2022-11-21T01:01:30;-0.70;94.00
29201;DHT22;16244;51.956;12.980;2022-11-21T01:03:59;-0.70;93.90
29201;DHT22;16244;51.956;12.980;2022-11-21T01:06:26;-0.70;94.00
29201;DHT22;16244;51.956;12.980;2022-11-21T01:08:54;-0.70;94.20
29201;DHT22;16244;51.956;12.980;2022-11-21T01:11:21;-0.70;94.30
29201;DHT22;16244;51.956;12.980;2022-11-21T01:13:52;-0.60;94.40
29201;DHT22;16244;51.956;12.980;2022-11-21T01:16:22;-0.60;94.30
29201;DHT22;16244;51.956;12.980;2022-11-21T01:18:51;-0.60;94.30
29201;DHT22;16244;51.956;12.980;2022-11-21T01:21:21;-0.60;94.30
29201;DHT22;16244;51.956;12.980;2022-11-21T01:23:49;-0.60;94.50
29201;DHT22;16244;51.956;12.980;2022-11-21T01:26:19;-0.60;94.70
29201;DHT22;16244;51.956;12.980;2022-11-21T01:28:46;-0.60;94.70
29201;DHT22;16244;51.956;12.980;2022-11-21T01:31:16;-0.60;94.70
29201;DHT22;16244;51.956;12.980;2022-11-21T01:33:44;-0.60;94.70
29201;DHT22;16244;51.956;12.980;2022-11-21T01:36:13;-0.60;94.70
29201;DHT22;16244;51.956;12.980;2022-11-21T01:38:43;-0.60;94.80
29201;DHT22;16244;51.956;12.980;2022-11-21T01:41:12;-0.60;94.80
29201;DHT22;16244;51.956;12.980;2022-11-21T01:43:39;-0.60;94.80
29201;DHT22;16244;51.956;12.980;2022-11-21T01:46:11;-0.60;95.00
29201;DHT22;16244;51.956;12.980;2022-11-21T01:48:43;-0.60;95.10
29201;DHT22;16244;51.956;12.980;2022-11-21T01:51:15;-0.60;95.00
29201;DHT22;16244;51.956;12.980;2022-11-21T01:53:49;-0.60;95.10
29201;DHT22;16244;51.956;12.980;2022-11-21T01:56:17;-0.60;95.30
29201;DHT22;16244;51.956;12.980;2022-11-21T01:58:45;-0.60;95.30
29201;DHT22;16244;51.956;12.980;2022-11-21T02:01:13;-0.60;95.40
29201;DHT22;16244;51.956;12.980;2022-11-21T02:03:41;-0.60;95.40
29201;DHT22;16244;51.956;12.980;2022-11-21T02:06:11;-0.60;95.40
29201;DHT22;16244;51.956;12.980;2022-11-21T02:08:40;-0.60;95.30
29201;DHT22;16244;51.956;12.980;2022-11-21T02:11:13;-0.80;95.30
29201;DHT22;16244;51.956;12.980;2022-11-21T02:13:42;-0.80;95.60
29201;DHT22;16244;51.956;12.980;2022-11-21T02:16:10;-0.70;95.50
29201;DHT22;16244;51.956;12.980;2022-11-21T02:18:37;-0.70;95.70
29201;DHT22;16244;51.956;12.980;2022-11-21T02:21:10;-0.70;95.80
29201;DHT22;16244;51.956;12.980;2022-11-21T02:23:44;-0.60;95.70
29201;DHT22;16244;51.956;12.980;2022-11-21T02:26:14;-0.70;95.70
29201;DHT22;16244;51.956;12.980;2022-11-21T02:28:41;-0.60;95.70
29201;DHT22;16244;51.956;12.980;2022-11-21T02:31:08;-0.60;95.70
29201;DHT22;16244;51.956;12.980;2022-11-21T02:33:35;-0.60;95.70
29201;DHT22;16244;51.956;12.980;2022-11-21T02:36:03;-0.60;95.50
29201;DHT22;16244;51.956;12.980;2022-11-21T02:38:32;-0.60;95.60
29201;DHT22;16244;51.956;12.980;2022-11-21T02:41:06;-0.60;95.30
29201;DHT22;16244;51.956;12.980;2022-11-21T02:43:40;-0.70;95.30
29201;DHT22;16244;51.956;12.980;2022-11-21T02:46:09;-0.80;95.60
29201;DHT22;16244;51.956;12.980;2022-11-21T02:48:36;-0.90;96.00
29201;DHT22;16244;51.956;12.980;2022-11-21T02:51:04;-1.00;96.30
29201;DHT22;16244;51.956;12.980;2022-11-21T02:53:32;-1.00;96.50
29201;DHT22;16244;51.956;12.980;2022-11-21T02:55:59;-0.90;96.50
29201;DHT22;16244;51.956;12.980;2022-11-21T02:58:26;-0.80;96.50
29201;DHT22;16244;51.956;12.980;2022-11-21T03:00:54;-0.80;96.40
29201;DHT22;16244;51.956;12.980;2022-11-21T03:03:21;-0.80;96.40
29201;DHT22;16244;51.956;12.980;2022-11-21T03:05:48;-0.70;96.30
29201;DHT22;16244;51.956;12.980;2022-11-21T03:08:15;-0.70;96.20
29201;DHT22;16244;51.956;12.980;2022-11-21T03:10:43;-0.70;96.00
29201;DHT22;16244;51.956;12.980;2022-11-21T03:13:10;-0.70;95.80
29201;DHT22;16244;51.956;12.980;2022-11-21T03:15:37;-0.70;95.80
29201;DHT22;16244;51.956;12.980;2022-11-21T03:18:05;-0.70;96.00
29201;DHT22;16244;51.956;12.980;2022-11-21T03:20:33;-0.70;95.90
29201;DHT22;16244;51.956;12.980;2022-11-21T03:23:01;-0.70;96.10
29201;DHT22;16244;51.956;12.980;2022-11-21T03:25:28;-0.90;96.10
29201;DHT22;16244;51.956;12.980;2022-11-21T03:27:56;-0.90;96.30
29201;DHT22;16244;51.956;12.980;2022-11-21T03:30:24;-0.90;96.40
29201;DHT22;16244;51.956;12.980;2022-11-21T03:32:54;-0.90;96.50
29201;DHT22;16244;51.956;12.980;2022-11-21T03:35:22;-0.80;96.60
29201;DHT22;16244;51.956;12.980;2022-11-21T03:37:49;-0.90;96.50
29201;DHT22;16244;51.956;12.980;2022-11-21T03:40:16;-0.90;96.70
29201;DHT22;16244;51.956;12.980;2022-11-21T03:42:43;-0.80;96.70
29201;DHT22;16244;51.956;12.980;2022-11-21T03:45:10;-0.80;96.80
29201;DHT22;16244;51.956;12.980;2022-11-21T03:47:37;-0.70;96.80
29201;DHT22;16244;51.956;12.980;2022-11-21T03:50:05;-0.70;96.40
29201;DHT22;16244;51.956;12.980;2022-11-21T03:52:33;-0.70;96.30
29201;DHT22;16244;51.956;12.980;2022-11-21T03:55:00;-0.70;96.30
29201;DHT22;16244;51.956;12.980;2022-11-21T03:57:27;-0.70;96.30
29201;DHT22;16244;51.956;12.980;2022-11-21T03:59:55;-0.70;96.30
29201;DHT22;16244;51.956;12.980;2022-11-21T04:02:22;-0.70;96.30
29201;DHT22;16244;51.956;12.980;2022-11-21T04:04:49;-0.80;96.20
29201;DHT22;16244;51.956;12.980;2022-11-21T04:07:16;-0.90;96.50
29201;DHT22;16244;51.956;12.980;2022-11-21T04:09:44;-1.00;96.50
29201;DHT22;16244;51.956;12.980;2022-11-21T04:12:11;-0.90;96.60
29201;DHT22;16244;51.956;12.980;2022-11-21T04:14:38;-0.90;96.50
29201;DHT22;16244;51.956;12.980;2022-11-21T04:17:05;-0.80;96.50
29201;DHT22;16244;51.956;12.980;2022-11-21T04:19:32;-0.90;96.50
29201;DHT22;16244;51.956;12.980;2022-11-21T04:21:59;-0.80;96.60
29201;DHT22;16244;51.956;12.980;2022-11-21T04:24:26;-0.90;96.60
29201;DHT22;16244;51.956;12.980;2022-11-21T04:26:54;-0.90;96.70
29201;DHT22;16244;51.956;12.980;2022-11-21T04:29:21;-1.00;96.70
29201;DHT22;16244;51.956;12.980;2022-11-21T04:31:48;-0.90;96.80
29201;DHT22;16244;51.956;12.980;2022-11-21T04:34:15;-1.00;96.70
29201;DHT22;16244;51.956;12.980;2022-11-21T04:36:42;-1.00;96.70
29201;DHT22;16244;51.956;12.980;2022-11-21T04:39:10;-1.00;96.70
29201;DHT22;16244;51.956;12.980;2022-11-21T04:41:37;-1.00;96.80
29201;DHT22;16244;51.956;12.980;2022-11-21T04:44:05;-0.90;96.70
29201;DHT22;16244;51.956;12.980;2022-11-21T04:46:32;-0.90;96.70
29201;DHT22;16244;51.956;12.980;2022-11-21T04:48:59;-0.90;96.70
29201;DHT22;16244;51.956;12.980;2022-11-21T04:51:26;-0.90;96.70
29201;DHT22;16244;51.956;12.980;2022-11-21T04:53:53;-0.90;96.80
29201;DHT22;16244;51.956;12.980;2022-11-21T04:56:20;-0.90;96.80
29201;DHT22;16244;51.956;12.980;2022-11-21T04:58:50;-0.90;96.70
29201;DHT22;16244;51.956;12.980;2022-11-21T05:01:19;-1.00;96.80
29201;DHT22;16244;51.956;12.980;2022-11-21T05:03:47;-1.00;96.90
29201;DHT22;16244;51.956;12.980;2022-11-21T05:06:14;-1.00;96.90
29201;DHT22;16244;51.956;12.980;2022-11-21T05:08:41;-1.00;97.00
29201;DHT22;16244;51.956;12.980;2022-11-21T05:11:08;-1.00;96.90
29201;DHT22;16244;51.956;12.980;2022-11-21T05:13:53;-1.00;96.90
29201;DHT22;16244;51.956;12.980;2022-11-21T05:16:21;-1.10;97.00
29201;DHT22;16244;51.956;12.980;2022-11-21T05:18:48;-1.00;97.10
29201;DHT22;16244;51.956;12.980;2022-11-21T05:21:15;-1.10;97.00
29201;DHT22;16244;51.956;12.980;2022-11-21T05:23:42;-1.10;97.00
29201;DHT22;16244;51.956;12.980;2022-11-21T05:26:10;-1.10;97.00
29201;DHT22;16244;51.956;12.980;2022-11-21T05:28:37;-1.10;96.90
29201;DHT22;16244;51.956;12.980;2022-11-21T05:31:04;-1.10;96.90
29201;DHT22;16244;51.956;12.980;2022-11-21T05:33:32;-1.10;96.80
29201;DHT22;16244;51.956;12.980;2022-11-21T05:35:59;-1.00;96.70
29201;DHT22;16244;51.956;12.980;2022-11-21T05:38:26;-1.10;96.60
29201;DHT22;16244;51.956;12.980;2022-11-21T05:40:53;-1.10;96.60
29201;DHT22;16244;51.956;12.980;2022-11-21T05:43:20;-1.10;96.70
29201;DHT22;16244;51.956;12.980;2022-11-21T05:46:05;-1.10;96.60
29201;DHT22;16244;51.956;12.980;2022-11-21T05:48:51;-1.10;96.60
29201;DHT22;16244;51.956;12.980;2022-11-21T05:51:35;-1.00;96.70
29201;DHT22;16244;51.956;12.980;2022-11-21T05:54:19;-1.00;96.60
29201;DHT22;16244;51.956;12.980;2022-11-21T05:57:00;-1.00;96.40
29201;DHT22;16244;51.956;12.980;2022-11-21T05:59:37;-1.10;96.30
29201;DHT22;16244;51.956;12.980;2022-11-21T06:02:29;-1.20;96.40
29201;DHT22;16244;51.956;12.980;2022-11-21T06:08:45;-1.10;96.70
29201;DHT22;16244;51.956;12.980;2022-11-21T06:11:41;-1.20;96.80
29201;DHT22;16244;51.956;12.980;2022-11-21T06:14:08;-1.10;96.90
29201;DHT22;16244;51.956;12.980;2022-11-21T06:16:35;-1.10;96.70
29201;DHT22;16244;51.956;12.980;2022-11-21T06:19:02;-1.00;96.80
29201;DHT22;16244;51.956;12.980;2022-11-21T06:21:35;-1.00;96.70
29201;DHT22;16244;51.956;12.980;2022-11-21T06:24:04;-1.00;96.70
29201;DHT22;16244;51.956;12.980;2022-11-21T06:26:31;-0.90;96.70
29201;DHT22;16244;51.956;12.980;2022-11-21T06:28:58;-1.00;96.60
29201;DHT22;16244;51.956;12.980;2022-11-21T06:31:39;-1.00;96.70
29201;DHT22;16244;51.956;12.980;2022-11-21T06:34:21;-1.00;96.80
29201;DHT22;16244;51.956;12.980;2022-11-21T06:36:48;-1.00;96.70
29201;DHT22;16244;51.956;12.980;2022-11-21T06:39:18;-1.10;96.70
29201;DHT22;16244;51.956;12.980;2022-11-21T06:41:46;-1.10;96.80
29201;DHT22;16244;51.956;12.980;2022-11-21T06:44:16;-1.00;96.80
29201;DHT22;16244;51.956;12.980;2022-11-21T06:46:43;-1.00;96.70
29201;DHT22;16244;51.956;12.980;2022-11-21T06:49:12;-1.10;96.50
29201;DHT22;16244;51.956;12.980;2022-11-21T06:51:39;-1.20;96.40
29201;DHT22;16244;51.956;12.980;2022-11-21T06:54:06;-1.20;96.40
29201;DHT22;16244;51.956;12.980;2022-11-21T06:56:51;-1.30;96.30
29201;DHT22;16244;51.956;12.980;2022-11-21T06:59:41;-1.30;96.20
29201;DHT22;16244;51.956;12.980;2022-11-21T07:02:10;-1.30;96.30
29201;DHT22;16244;51.956;12.980;2022-11-21T07:04:38;-1.40;96.50
29201;DHT22;16244;51.956;12.980;2022-11-21T07:07:12;-1.40;96.50
29201;DHT22;16244;51.956;12.980;2022-11-21T07:10:08;-1.40;96.90
29201;DHT22;16244;51.956;12.980;2022-11-21T07:13:20;-1.50;96.60
29201;DHT22;16244;51.956;12.980;2022-11-21T07:16:16;-1.50;96.60
29201;DHT22;16244;51.956;12.980;2022-11-21T07:18:59;-1.50;96.40
29201;DHT22;16244;51.956;12.980;2022-11-21T07:21:46;-1.50;96.30
29201;DHT22;16244;51.956;12.980;2022-11-21T07:24:28;-1.60;96.30
29201;DHT22;16244;51.956;12.980;2022-11-21T07:26:55;-1.50;96.30
29201;DHT22;16244;51.956;12.980;2022-11-21T07:29:52;-1.50;96.20
29201;DHT22;16244;51.956;12.980;2022-11-21T07:32:54;-1.50;96.10
29201;DHT22;16244;51.956;12.980;2022-11-21T07:35:42;-1.50;96.00
29201;DHT22;16244;51.956;12.980;2022-11-21T07:38:24;-1.40;96.10
29201;DHT22;16244;51.956;12.980;2022-11-21T07:41:23;-1.30;96.00
29201;DHT22;16244;51.956;12.980;2022-11-21T07:44:18;-1.30;95.50
29201;DHT22;16244;51.956;12.980;2022-11-21T07:47:19;-1.20;95.30
29201;DHT22;16244;51.956;12.980;2022-11-21T07:50:11;-1.20;95.20
29201;DHT22;16244;51.956;12.980;2022-11-21T07:52:58;-1.10;95.40
29201;DHT22;16244;51.956;12.980;2022-11-21T07:55:41;-1.00;95.30
29201;DHT22;16244;51.956;12.980;2022-11-21T07:58:32;-1.00;95.40
29201;DHT22;16244;51.956;12.980;2022-11-21T08:01:20;-0.90;95.50
29201;DHT22;16244;51.956;12.980;2022-11-21T08:10:33;-0.80;94.60
29201;DHT22;16244;51.956;12.980;2022-11-21T08:13:23;-0.80;94.70
29201;DHT22;16244;51.956;12.980;2022-11-21T08:16:05;-0.70;94.70
29201;DHT22;16244;51.956;12.980;2022-11-21T08:19:02;-0.60;94.80
29201;DHT22;16244;51.956;12.980;2022-11-21T08:21:56;-0.40;94.80
29201;DHT22;16244;51.956;12.980;2022-11-21T08:24:38;-0.30;94.50
29201;DHT22;16244;51.956;12.980;2022-11-21T08:27:37;-0.20;94.40
29201;DHT22;16244;51.956;12.980;2022-11-21T08:30:29;0.00;94.20
29201;DHT22;16244;51.956;12.980;2022-11-21T08:33:11;0.10;94.10
29201;DHT22;16244;51.956;12.980;2022-11-21T08:36:03;0.10;93.70
29201;DHT22;16244;51.956;12.980;2022-11-21T08:38:44;0.00;93.80
29201;DHT22;16244;51.956;12.980;2022-11-21T08:41:36;0.00;94.20
29201;DHT22;16244;51.956;12.980;2022-11-21T08:44:42;0.10;94.30
29201;DHT22;16244;51.956;12.980;2022-11-21T08:47:28;0.10;94.50
29201;DHT22;16244;51.956;12.980;2022-11-21T08:50:26;0.00;94.20
29201;DHT22;16244;51.956;12.980;2022-11-21T08:52:58;0.20;94.40
29201;DHT22;16244;51.956;12.980;2022-11-21T08:55:28;0.30;94.10
29201;DHT22;16244;51.956;12.980;2022-11-21T08:58:16;0.30;93.90
29201;DHT22;16244;51.956;12.980;2022-11-21T09:01:36;0.50;93.80
29201;DHT22;16244;51.956;12.980;2022-11-21T09:04:32;0.60;93.50
29201;DHT22;16244;51.956;12.980;2022-11-21T09:07:13;0.60;93.50
29201;DHT22;16244;51.956;12.980;2022-11-21T09:09:56;0.60;93.40
29201;DHT22;16244;51.956;12.980;2022-11-21T09:12:48;0.60;93.40
29201;DHT22;16244;51.956;12.980;2022-11-21T09:15:30;0.70;93.50
29201;DHT22;16244;51.956;12.980;2022-11-21T09:18:18;0.90;93.30
29201;DHT22;16244;51.956;12.980;2022-11-21T09:21:13;0.80;92.80
29201;DHT22;16244;51.956;12.980;2022-11-21T09:23:57;0.80;92.90
29201;DHT22;16244;51.956;12.980;2022-11-21T09:26:39;0.90;93.10
29201;DHT22;16244;51.956;12.980;2022-11-21T09:29:34;1.00;92.60
29201;DHT22;16244;51.956;12.980;2022-11-21T09:32:17;1.00;92.50
29201;DHT22;16244;51.956;12.980;2022-11-21T09:35:01;1.00;92.40
29201;DHT22;16244;51.956;12.980;2022-11-21T09:37:35;1.00;92.50
29201;DHT22;16244;51.956;12.980;2022-11-21T09:40:17;1.10;91.80
29201;DHT22;16244;51.956;12.980;2022-11-21T09:43:07;1.10;91.50
29201;DHT22;16244;51.956;12.980;2022-11-21T09:46:10;1.00;91.50
29201;DHT22;16244;51.956;12.980;2022-11-21T09:49:11;0.80;91.80
29201;DHT22;16244;51.956;12.980;2022-11-21T09:52:16;0.70;91.90
29201;DHT22;16244;51.956;12.980;2022-11-21T09:55:20;0.60;92.00
29201;DHT22;16244;51.956;12.980;2022-11-21T09:58:15;0.60;92.20
29201;DHT22;16244;51.956;12.980;2022-11-21T10:01:04;0.60;92.10
29201;DHT22;16244;51.956;12.980;2022-11-21T10:03:54;0.70;92.20
29201;DHT22;16244;51.956;12.980;2022-11-21T10:06:45;0.70;92.20
29201;DHT22;16244;51.956;12.980;2022-11-21T10:13:21;0.80;91.90
29201;DHT22;16244;51.956;12.980;2022-11-21T10:15:57;0.70;92.20
29201;DHT22;16244;51.956;12.980;2022-11-21T10:18:58;0.90;92.00
29201;DHT22;16244;51.956;12.980;2022-11-21T10:22:09;0.90;92.00
29201;DHT22;16244;51.956;12.980;2022-11-21T10:25:12;0.80;91.50
29201;DHT22;16244;51.956;12.980;2022-11-21T10:27:59;0.70;91.60
29201;DHT22;16244;51.956;12.980;2022-11-21T10:30:32;0.90;91.60
29201;DHT22;16244;51.956;12.980;2022-11-21T10:33:29;0.90;91.80
29201;DHT22;16244;51.956;12.980;2022-11-21T10:36:28;0.90;91.60
29201;DHT22;16244;51.956;12.980;2022-11-21T10:39:33;0.80;91.70
29201;DHT22;16244;51.956;12.980;2022-11-21T10:42:35;0.80;91.60
29201;DHT22;16244;51.956;12.980;2022-11-21T10:45:34;0.90;91.90
29201;DHT22;16244;51.956;12.980;2022-11-21T10:48:32;0.90;91.70
29201;DHT22;16244;51.956;12.980;2022-11-21T10:51:46;0.80;92.10
29201;DHT22;16244;51.956;12.980;2022-11-21T10:55:04;0.80;92.10
29201;DHT22;16244;51.956;12.980;2022-11-21T10:57:54;0.80;92.10
29201;DHT22;16244;51.956;12.980;2022-11-21T11:11:14;0.80;92.20
29201;DHT22;16244;51.956;12.980;2022-11-21T11:14:05;0.80;92.50
29201;DHT22;16244;51.956;12.980;2022-11-21T11:17:01;0.80;92.70
29201;DHT22;16244;51.956;12.980;2022-11-21T11:20:00;0.80;92.60
29201;DHT22;16244;51.956;12.980;2022-11-21T11:22:42;0.80;92.40
29201;DHT22;16244;51.956;12.980;2022-11-21T11:25:38;0.80;92.50
29201;DHT22;16244;51.956;12.980;2022-11-21T11:28:38;0.90;92.50
29201;DHT22;16244;51.956;12.980;2022-11-21T11:31:41;0.90;92.60
29201;DHT22;16244;51.956;12.980;2022-11-21T11:34:11;1.00;92.30
29201;DHT22;16244;51.956;12.980;2022-11-21T11:36:52;1.00;92.00
29201;DHT22;16244;51.956;12.980;2022-11-21T11:39:31;1.00;92.20
29201;DHT22;16244;51.956;12.980;2022-11-21T11:42:26;1.10;92.30
29201;DHT22;16244;51.956;12.980;2022-11-21T11:45:29;1.10;92.20
29201;DHT22;16244;51.956;12.980;2022-11-21T11:48:15;1.30;92.10
29201;DHT22;16244;51.956;12.980;2022-11-21T11:50:47;1.40;91.70
29201;DHT22;16244;51.956;12.980;2022-11-21T11:53:16;1.50;91.50
29201;DHT22;16244;51.956;12.980;2022-11-21T11:55:46;1.60;91.60
29201;DHT22;16244;51.956;12.980;2022-11-21T11:58:20;1.70;91.70
29201;DHT22;16244;51.956;12.980;2022-11-21T12:00:57;1.60;91.50
29201;DHT22;16244;51.956;12.980;2022-11-21T12:03:34;1.60;91.30
29201;DHT22;16244;51.956;12.980;2022-11-21T12:06:08;1.60;91.00
29201;DHT22;16244;51.956;12.980;2022-11-21T12:08:45;1.60;91.20
29201;DHT22;16244;51.956;12.980;2022-11-21T12:11:23;1.70;90.80
29201;DHT22;16244;51.956;12.980;2022-11-21T12:14:19;1.60;90.60
29201;DHT22;16244;51.956;12.980;2022-11-21T12:17:05;1.60;90.80
29201;DHT22;16244;51.956;12.980;2022-11-21T12:19:35;1.60;90.40
29201;DHT22;16244;51.956;12.980;2022-11-21T12:22:03;1.60;90.60
29201;DHT22;16244;51.956;12.980;2022-11-21T12:24:33;1.60;90.50
29201;DHT22;16244;51.956;12.980;2022-11-21T12:27:06;1.50;90.30
29201;DHT22;16244;51.956;12.980;2022-11-21T12:29:53;1.50;90.70
29201;DHT22;16244;51.956;12.980;2022-11-21T12:32:37;1.50;90.70
29201;DHT22;16244;51.956;12.980;2022-11-21T12:35:20;1.60;89.30
29201;DHT22;16244;51.956;12.980;2022-11-21T12:37:59;1.70;90.00
29201;DHT22;16244;51.956;12.980;2022-11-21T12:40:40;1.80;89.80
29201;DHT22;16244;51.956;12.980;2022-11-21T12:43:19;1.90;88.70
29201;DHT22;16244;51.956;12.980;2022-11-21T12:45:55;1.90;88.50
29201;DHT22;16244;51.956;12.980;2022-11-21T12:48:39;2.00;89.20
29201;DHT22;16244;51.956;12.980;2022-11-21T12:51:50;1.80;89.20
29201;DHT22;16244;51.956;12.980;2022-11-21T12:54:51;1.60;90.20
29201;DHT22;16244;51.956;12.980;2022-11-21T12:57:27;1.60;90.20
29201;DHT22;16244;51.956;12.980;2022-11-21T13:00:03;1.50;88.90
29201;DHT22;16244;51.956;12.980;2022-11-21T13:02:43;1.50;89.70
29201;DHT22;16244;51.956;12.980;2022-11-21T13:05:20;1.50;90.10
29201;DHT22;16244;51.956;12.980;2022-11-21T13:08:00;1.50;90.40
29201;DHT22;16244;51.956;12.980;2022-11-21T13:10:30;1.50;90.70
29201;DHT22;16244;51.956;12.980;2022-11-21T13:13:01;1.60;90.80
29201;DHT22;16244;51.956;12.980;2022-11-21T13:15:37;1.60;90.60
29201;DHT22;16244;51.956;12.980;2022-11-21T13:18:15;1.50;90.50
29201;DHT22;16244;51.956;12.980;2022-11-21T13:20:47;1.40;90.90
29201;DHT22;16244;51.956;12.980;2022-11-21T13:23:33;1.50;91.00
29201;DHT22;16244;51.956;12.980;2022-11-21T13:26:01;1.50;91.20
29201;DHT22;16244;51.956;12.980;2022-11-21T13:28:34;1.50;91.30
29201;DHT22;16244;51.956;12.980;2022-11-21T13:33:50;1.60;91.20
29201;DHT22;16244;51.956;12.980;2022-11-21T13:36:36;1.50;90.80
29201;DHT22;16244;51.956;12.980;2022-11-21T13:39:32;1.50;90.90
29201;DHT22;16244;51.956;12.980;2022-11-21T13:42:05;1.50;91.10
29201;DHT22;16244;51.956;12.980;2022-11-21T13:44:50;1.50;90.50
29201;DHT22;16244;51.956;12.980;2022-11-21T13:47:39;1.50;90.10
29201;DHT22;16244;51.956;12.980;2022-11-21T13:50:20;1.50;90.00
29201;DHT22;16244;51.956;12.980;2022-11-21T13:52:59;1.50;90.20
29201;DHT22;16244;51.956;12.980;2022-11-21T13:55:44;1.50;90.40
29201;DHT22;16244;51.956;12.980;2022-11-21T13:58:24;1.60;90.60
29201;DHT22;16244;51.956;12.980;2022-11-21T14:01:20;1.60;90.30
29201;DHT22;16244;51.956;12.980;2022-11-21T14:04:04;1.50;90.10
29201;DHT22;16244;51.956;12.980;2022-11-21T14:06:39;1.40;90.30
29201;DHT22;16244;51.956;12.980;2022-11-21T14:09:22;1.30;90.30
29201;DHT22;16244;51.956;12.980;2022-11-21T14:11:53;1.20;90.10
29201;DHT22;16244;51.956;12.980;2022-11-21T14:14:39;1.10;90.10
29201;DHT22;16244;51.956;12.980;2022-11-21T14:17:25;0.90;90.20
29201;DHT22;16244;51.956;12.980;2022-11-21T14:19:56;1.00;90.70
29201;DHT22;16244;51.956;12.980;2022-11-21T14:22:25;1.00;90.70
29201;DHT22;16244;51.956;12.980;2022-11-21T14:24:54;1.00;90.90
29201;DHT22;16244;51.956;12.980;2022-11-21T14:27:26;1.00;90.70
29201;DHT22;16244;51.956;12.980;2022-11-21T14:29:54;1.00;90.90
29201;DHT22;16244;51.956;12.980;2022-11-21T14:32:25;1.10;91.20
29201;DHT22;16244;51.956;12.980;2022-11-21T14:35:06;1.10;91.40
29201;DHT22;16244;51.956;12.980;2022-11-21T14:37:34;1.10;92.00
29201;DHT22;16244;51.956;12.980;2022-11-21T14:40:11;1.10;92.00
29201;DHT22;16244;51.956;12.980;2022-11-21T14:42:39;1.10;91.70
29201;DHT22;16244;51.956;12.980;2022-11-21T14:45:12;0.90;92.10
29201;DHT22;16244;51.956;12.980;2022-11-21T14:47:46;1.00;92.50
29201;DHT22;16244;51.956;12.980;2022-11-21T14:50:25;0.90;92.50
29201;DHT22;16244;51.956;12.980;2022-11-21T14:52:52;1.00;92.90
29201;DHT22;16244;51.956;12.980;2022-11-21T14:55:26;1.00;92.90
29201;DHT22;16244;51.956;12.980;2022-11-21T14:57:55;1.00;93.10
29201;DHT22;16244;51.956;12.980;2022-11-21T15:00:24;1.00;93.10
29201;DHT22;16244;51.956;12.980;2022-11-21T15:02:54;1.10;92.90
29201;DHT22;16244;51.956;12.980;2022-11-21T15:05:27;1.00;93.10
29201;DHT22;16244;51.956;12.980;2022-11-21T15:07:55;1.00;93.10
29201;DHT22;16244;51.956;12.980;2022-11-21T15:10:28;1.00;93.30
29201;DHT22;16244;51.956;12.980;2022-11-21T15:12:59;1.00;93.30
29201;DHT22;16244;51.956;12.980;2022-11-21T15:15:31;1.00;93.50
29201;DHT22;16244;51.956;12.980;2022-11-21T15:18:00;1.00;93.40
29201;DHT22;16244;51.956;12.980;2022-11-21T15:20:28;0.90;93.50
29201;DHT22;16244;51.956;12.980;2022-11-21T15:22:57;0.90;93.40
29201;DHT22;16244;51.956;12.980;2022-11-21T15:25:26;0.90;93.50
29201;DHT22;16244;51.956;12.980;2022-11-21T15:28:07;0.90;93.50
29201;DHT22;16244;51.956;12.980;2022-11-21T15:30:36;0.90;93.50
29201;DHT22;16244;51.956;12.980;2022-11-21T15:33:06;0.90;93.50
29201;DHT22;16244;51.956;12.980;2022-11-21T15:35:45;0.90;93.60
29201;DHT22;16244;51.956;12.980;2022-11-21T15:38:40;0.90;93.90
29201;DHT22;16244;51.956;12.980;2022-11-21T15:41:37;0.80;93.80
29201;DHT22;16244;51.956;12.980;2022-11-21T15:44:20;0.80;93.90
29201;DHT22;16244;51.956;12.980;2022-11-21T15:46:51;0.80;94.10
29201;DHT22;16244;51.956;12.980;2022-11-21T15:49:18;0.80;93.70
29201;DHT22;16244;51.956;12.980;2022-11-21T15:51:46;0.80;93.80
29201;DHT22;16244;51.956;12.980;2022-11-21T15:54:16;0.70;93.70
29201;DHT22;16244;51.956;12.980;2022-11-21T15:56:43;0.60;93.80
29201;DHT22;16244;51.956;12.980;2022-11-21T15:59:12;0.60;93.70
29201;DHT22;16244;51.956;12.980;2022-11-21T16:01:40;0.60;93.80
29201;DHT22;16244;51.956;12.980;2022-11-21T16:04:10;0.50;93.70
29201;DHT22;16244;51.956;12.980;2022-11-21T16:06:37;0.50;93.90
29201;DHT22;16244;51.956;12.980;2022-11-21T16:09:04;0.50;93.90
29201;DHT22;16244;51.956;12.980;2022-11-21T16:11:33;0.50;93.90
29201;DHT22;16244;51.956;12.980;2022-11-21T16:14:04;0.50;93.90
29201;DHT22;16244;51.956;12.980;2022-11-21T16:16:33;0.40;93.70
29201;DHT22;16244;51.956;12.980;2022-11-21T16:19:01;0.40;93.80
29201;DHT22;16244;51.956;12.980;2022-11-21T16:21:29;0.40;93.90
29201;DHT22;16244;51.956;12.980;2022-11-21T16:23:56;0.40;94.00
29201;DHT22;16244;51.956;12.980;2022-11-21T16:26:23;0.40;93.70
29201;DHT22;16244;51.956;12.980;2022-11-21T16:28:54;0.30;93.40
29201;DHT22;16244;51.956;12.980;2022-11-21T16:31:23;0.40;93.50
29201;DHT22;16244;51.956;12.980;2022-11-21T16:33:50;0.30;93.40
29201;DHT22;16244;51.956;12.980;2022-11-21T16:36:23;0.30;93.50
29201;DHT22;16244;51.956;12.980;2022-11-21T16:38:51;0.30;93.40
29201;DHT22;16244;51.956;12.980;2022-11-21T16:41:20;0.30;93.20
29201;DHT22;16244;51.956;12.980;2022-11-21T16:43:49;0.20;93.30
29201;DHT22;16244;51.956;12.980;2022-11-21T16:46:17;0.30;93.60